Time;durP1;ratioP1;P1;durP2;ratioP2;P2;SDS_P1;SDS_P2;PMS_P1;PMS_P2;Temp;Humidity;BMP_temperature;BMP_pressure;BME280_temperature;BME280_humidity;BME280_pressure;Samples;Min_cycle;Max_cycle;Signal;HPM_P1;HPM_P2
2022/12/04 00:01:29;;;;;;;53.92;27.13;;;;;;;6.10;100.00;101161.09;5010310;28;20026;-68
2022/12/04 00:03:57;;;;;;;49.20;25.80;;;;;;;6.16;100.00;101165.34;5009587;28;20125;-68
2022/12/04 00:06:24;;;;;;;52.92;26.17;;;;;;;6.03;100.00;101146.72;5010008;28;20034;-67
2022/12/04 00:08:50;;;;;;;48.10;24.73;;;;;;;6.16;100.00;101158.59;5009981;28;20026;-67
2022/12/04 00:11:22;;;;;;;54.05;26.25;;;;;;;5.98;100.00;101123.94;5009751;28;20038;-68
2022/12/04 00:13:47;;;;;;;;;;;;;;;6.49;100.00;101211.09;5010540;28;20124;-67
2022/12/04 00:16:17;;;;;;;53.65;25.70;;;;;;;6.50;100.00;101228.78;5013220;28;20348;-68
2022/12/04 00:18:43;;;;;;;57.63;26.88;;;;;;;6.22;100.00;101200.75;5013420;28;20037;-68
2022/12/04 00:21:11;;;;;;;54.00;25.75;;;;;;;6.21;100.00;101192.31;5013000;28;20034;-68
2022/12/04 00:23:38;;;;;;;55.33;27.17;;;;;;;6.35;100.00;101208.44;5013562;28;20042;-68
2022/12/04 00:26:10;;;;;;;51.15;24.98;;;;;;;6.49;100.00;101203.50;5013402;28;20108;-68
2022/12/04 00:28:36;;;;;;;58.22;27.08;;;;;;;6.41;100.00;101188.28;5013108;28;20030;-69
2022/12/04 00:31:06;;;;;;;55.05;26.60;;;;;;;6.58;100.00;101213.69;5013529;28;20428;-69
2022/12/04 00:33:32;;;;;;;51.88;26.20;;;;;;;6.40;100.00;101218.59;5013359;28;20532;-67
2022/12/04 00:35:59;;;;;;;56.70;25.58;;;;;;;6.08;100.00;101156.00;5013025;28;20022;-67
2022/12/04 00:38:25;;;;;;;58.55;27.02;;;;;;;6.38;100.00;101212.69;5012456;28;20038;-67
2022/12/04 00:40:51;;;;;;;55.08;26.05;;;;;;;6.40;100.00;101208.50;5012997;28;20030;-67
2022/12/04 00:43:16;;;;;;;54.30;26.42;;;;;;;6.51;100.00;101200.16;5011486;28;20113;-67
2022/12/04 00:45:42;;;;;;;58.90;26.85;;;;;;;5.96;100.00;101112.16;5013162;28;20485;-67
2022/12/04 00:48:08;;;;;;;53.70;26.90;;;;;;;6.08;100.00;101142.56;5012804;28;20033;-67
2022/12/04 00:50:34;;;;;;;51.10;26.08;;;;;;;6.43;100.00;101205.97;5011007;28;20053;-68
2022/12/04 00:52:59;;;;;;;54.15;26.50;;;;;;;6.31;100.00;101190.72;5013130;28;20131;-67
2022/12/04 00:55:25;;;;;;;57.88;26.60;;;;;;;6.03;100.00;101144.19;5012843;28;20028;-68
2022/12/04 00:57:50;;;;;;;52.83;26.42;;;;;;;6.31;100.00;101199.16;5012742;28;20521;-68
2022/12/04 01:00:17;;;;;;;54.35;27.33;;;;;;;5.84;100.00;101117.09;5012605;28;20033;-67
2022/12/04 01:02:43;;;;;;;54.22;26.10;;;;;;;6.03;100.00;101141.66;5012509;28;20033;-68
2022/12/04 01:05:08;;;;;;;51.67;25.75;;;;;;;6.23;100.00;101162.88;5010846;28;20037;-68
2022/12/04 01:07:34;;;;;;;50.50;26.38;;;;;;;6.35;100.00;101157.09;5012413;28;20034;-68
2022/12/04 01:09:59;;;;;;;50.60;25.88;;;;;;;6.35;100.00;101188.25;5012696;28;20030;-66
2022/12/04 01:12:25;;;;;;;50.55;26.40;;;;;;;6.41;100.00;101205.97;5011325;28;20065;-67
2022/12/04 01:14:50;;;;;;;54.15;26.25;;;;;;;6.42;100.00;101202.59;5010721;28;20420;-68
2022/12/04 01:17:15;;;;;;;50.70;24.88;;;;;;;6.12;100.00;101147.63;5012238;28;20037;-68
2022/12/04 01:19:41;;;;;;;52.33;26.05;;;;;;;6.07;100.00;101149.28;5026921;28;20034;-69
2022/12/04 01:22:07;;;;;;;56.58;29.05;;;;;;;6.07;100.00;101140.84;5012471;28;20429;-69
2022/12/04 01:24:32;;;;;;;54.17;28.75;;;;;;;6.44;100.00;101180.72;5012143;28;20034;-69
2022/12/04 01:26:57;;;;;;;59.47;28.73;;;;;;;6.42;100.00;101200.06;5012525;28;20030;-69
2022/12/04 01:29:23;;;;;;;57.92;27.98;;;;;;;6.48;100.00;101214.44;5011988;28;20057;-69
2022/12/04 01:31:48;;;;;;;54.85;26.60;;;;;;;5.92;100.00;101123.88;5012068;28;20034;-69
2022/12/04 01:34:14;;;;;;;48.90;26.92;;;;;;;6.41;100.00;101205.13;5011608;28;20481;-68
2022/12/04 01:36:39;;;;;;;55.63;26.98;;;;;;;6.37;100.00;101203.41;5011643;28;20038;-69
2022/12/04 01:39:04;;;;;;;52.17;26.90;;;;;;;6.29;100.00;101193.25;5011953;28;20080;-68
2022/12/04 01:41:31;;;;;;;48.60;25.83;;;;;;;6.22;100.00;101162.88;5012205;28;20022;-68
2022/12/04 01:44:19;;;;;;;51.35;25.42;;;;;;;6.41;100.00;101198.41;5012091;28;20034;-68
2022/12/04 01:46:54;;;;;;;46.35;25.20;;;;;;;6.53;100.00;101200.19;5010227;28;20030;-69
2022/12/04 01:49:38;;;;;;;51.35;25.70;;;;;;;6.51;100.00;101210.28;5011921;28;20117;-68
2022/12/04 01:52:14;;;;;;;53.85;26.35;;;;;;;6.57;100.00;101207.81;5010113;28;20044;-69
2022/12/04 01:54:44;;;;;;;52.08;25.00;;;;;;;6.28;100.00;101183.97;5012035;28;20057;-69
2022/12/04 01:57:16;;;;;;;50.20;25.77;;;;;;;6.07;100.00;101163.56;5011193;28;20029;-70
2022/12/04 01:59:46;;;;;;;50.50;25.70;;;;;;;6.14;100.00;101161.13;5010095;28;20040;-68
2022/12/04 02:02:16;;;;;;;49.42;25.17;;;;;;;6.09;100.00;101156.88;5011904;28;20038;-69
2022/12/04 02:04:42;;;;;;;53.40;26.95;;;;;;;6.33;100.00;101196.63;5011580;28;20030;-70
2022/12/04 02:07:08;;;;;;;47.47;25.40;;;;;;;6.39;100.00;101192.50;5010052;28;20040;-68
2022/12/04 02:09:38;;;;;;;51.83;25.75;;;;;;;6.38;100.00;101197.53;5011419;28;20068;-67
2022/12/04 02:12:34;;;;;;;45.85;24.85;;;;;;;6.49;100.00;101201.84;5010435;28;20040;-68
2022/12/04 02:15:08;;;;;;;45.53;24.35;;;;;;;6.44;100.00;101202.63;5011379;28;20034;-68
2022/12/04 02:17:59;;;;;;;46.60;25.33;;;;;;;6.38;100.00;101200.88;5009940;28;20037;-68
2022/12/04 02:20:27;;;;;;;45.05;23.02;;;;;;;6.43;100.00;101195.88;5011474;28;20109;-69
2022/12/04 02:23:14;;;;;;;42.92;24.05;;;;;;;6.43;100.00;101193.34;5011438;28;20052;-69
2022/12/04 02:26:01;;;;;;;44.47;24.25;;;;;;;6.41;100.00;101192.50;5011601;28;20034;-69
2022/12/04 02:28:39;;;;;;;47.85;23.70;;;;;;;6.44;100.00;101197.59;5011058;28;20033;-68
2022/12/04 02:31:11;;;;;;;42.97;23.10;;;;;;;6.39;100.00;101195.00;5009951;28;20506;-68
2022/12/04 02:33:45;;;;;;;44.00;23.33;;;;;;;6.13;100.00;101141.78;5011376;28;20029;-68
2022/12/04 02:36:19;;;;;;;40.67;22.83;;;;;;;6.38;100.00;101183.22;5010971;28;20044;-69
2022/12/04 02:38:56;;;;;;;45.47;22.73;;;;;;;5.97;100.00;101139.94;5010443;28;20046;-68
2022/12/04 02:41:29;;;;;;;39.72;21.75;;;;;;;6.09;100.00;101134.16;5012518;28;20126;-69
2022/12/04 02:44:00;;;;;;;44.33;22.75;;;;;;;6.15;100.00;101156.91;5011025;28;20053;-68
2022/12/04 02:46:43;;;;;;;41.27;22.73;;;;;;;6.38;100.00;101175.63;5010968;28;20057;-68
2022/12/04 02:49:24;;;;;;;40.72;22.20;;;;;;;6.27;100.00;101189.84;5011169;28;20793;-69
2022/12/04 02:51:53;;;;;;;37.53;21.17;;;;;;;6.55;100.00;101194.31;5010844;28;20029;-68
2022/12/04 02:54:31;;;;;;;40.67;22.35;;;;;;;6.12;100.00;101150.16;5010476;28;20029;-68
2022/12/04 02:56:58;;;;;;;40.75;22.05;;;;;;;6.24;100.00;101173.84;5010689;28;20068;-69
2022/12/04 02:59:35;;;;;;;35.75;21.17;;;;;;;6.39;100.00;101201.75;5010633;28;20428;-68
2022/12/04 03:02:07;;;;;;;38.15;21.38;;;;;;;6.38;100.00;101192.47;5010136;28;20141;-67
2022/12/04 03:04:33;;;;;;;37.30;21.38;;;;;;;6.36;100.00;101201.72;5009360;28;20033;-68
2022/12/04 03:07:09;;;;;;;41.20;21.85;;;;;;;6.32;100.00;101190.72;5010779;28;20531;-68
2022/12/04 03:09:41;;;;;;;36.17;21.58;;;;;;;6.30;100.00;101194.09;5010651;28;20030;-68
2022/12/04 03:12:10;;;;;;;35.78;20.38;;;;;;;6.37;100.00;101201.72;5025466;28;20040;-69
2022/12/04 03:14:41;;;;;;;33.25;19.23;;;;;;;6.56;100.00;101187.56;5010549;28;20472;-69
2022/12/04 03:17:22;;;;;;;35.15;20.45;;;;;;;6.23;100.00;101151.94;5010660;28;20060;-69
2022/12/04 03:19:53;;;;;;;33.50;18.63;;;;;;;6.29;100.00;101188.19;5010667;28;20133;-70
2022/12/04 03:22:22;;;;;;;37.65;20.88;;;;;;;6.05;100.00;101142.53;5009240;28;20516;-68
2022/12/04 03:24:51;;;;;;;36.17;19.05;;;;;;;6.12;100.00;101170.34;5010622;28;20121;-69
2022/12/04 03:27:38;;;;;;;34.35;19.30;;;;;;;6.43;100.00;101206.84;5011014;28;20489;-70
2022/12/04 03:30:07;;;;;;;32.95;19.40;;;;;;;6.27;100.00;101181.44;5010399;28;20215;-70
2022/12/04 03:32:50;;;;;;;33.50;18.60;;;;;;;6.35;100.00;101203.41;5009209;28;20436;-70
2022/12/04 03:35:19;;;;;;;31.48;18.20;;;;;;;6.41;100.00;101203.44;5011857;28;20076;-70
2022/12/04 03:38:00;;;;;;;30.50;17.60;;;;;;;6.51;100.00;101207.75;5010619;28;20080;-69
2022/12/04 03:40:37;;;;;;;27.80;17.90;;;;;;;6.23;100.00;101182.22;5010269;28;20100;-69
2022/12/04 03:43:22;;;;;;;28.58;16.70;;;;;;;6.08;100.00;101153.50;5009923;28;20038;-70
2022/12/04 03:45:57;;;;;;;26.80;16.83;;;;;;;6.04;100.00;101146.72;5008868;28;20034;-69
2022/12/04 03:48:30;;;;;;;26.58;16.10;;;;;;;6.39;100.00;101179.88;5011896;28;20105;-69
2022/12/04 03:51:16;;;;;;;24.85;16.20;;;;;;;6.46;100.00;101199.28;5014527;28;20033;-69
2022/12/04 03:53:45;;;;;;;24.45;16.08;;;;;;;6.04;100.00;101146.72;5013765;28;20030;-69
2022/12/04 03:56:19;;;;;;;22.20;14.88;;;;;;;6.40;100.00;101181.53;5013980;28;20046;-70
2022/12/04 03:58:49;;;;;;;26.65;15.15;;;;;;;6.58;100.00;101184.22;5013991;28;20593;-68
2022/12/04 04:01:21;;;;;;;21.10;14.50;;;;;;;6.27;100.00;101143.56;5014376;28;20116;-69
2022/12/04 04:03:48;;;;;;;;;;;;;;;6.54;100.00;101202.72;5014227;28;20022;-69
2022/12/04 04:06:23;;;;;;;19.70;13.40;;;;;;;6.60;100.00;101195.19;5013638;28;19913;-68
2022/12/04 04:08:54;;;;;;;24.48;13.80;;;;;;;6.53;100.00;101203.56;5013912;28;20029;-69
2022/12/04 04:11:26;;;;;;;25.05;14.63;;;;;;;6.47;100.00;101193.41;5012463;28;20032;-68
2022/12/04 04:25:15;;;;;;;25.67;14.65;;;;;;;6.15;100.00;101164.50;5013433;28;20037;-68
2022/12/04 04:27:40;;;;;;;23.20;14.30;;;;;;;6.38;100.00;101190.78;5013664;28;20461;-69
2022/12/04 04:30:08;;;;;;;24.08;14.98;;;;;;;6.49;100.00;101211.94;5013846;28;20057;-68
2022/12/04 04:32:41;;;;;;;20.73;14.30;;;;;;;6.50;100.00;101210.25;5013609;28;20052;-69
2022/12/04 04:35:43;;;;;;;24.00;14.07;;;;;;;6.50;100.00;101222.88;5013185;28;20029;-69
2022/12/04 04:38:26;;;;;;;25.58;14.25;;;;;;;6.11;100.00;101151.00;5011607;28;20066;-69
2022/12/04 04:41:15;;;;;;;21.05;13.70;;;;;;;6.13;100.00;101177.09;5013378;28;20491;-69
2022/12/04 04:43:46;;;;;;;24.48;14.30;;;;;;;6.20;100.00;101172.13;5013124;28;20084;-68
2022/12/04 04:46:24;;;;;;;20.17;13.43;;;;;;;5.84;100.00;101120.44;5012980;28;20125;-68
2022/12/04 04:48:53;;;;;;;23.95;14.98;;;;;;;6.40;100.00;101221.94;5012788;28;20072;-69
2022/12/04 04:51:19;;;;;;;23.45;14.93;;;;;;;6.11;100.00;101166.16;5012828;28;20030;-69
2022/12/04 04:53:49;;;;;;;23.85;15.43;;;;;;;6.33;100.00;101206.72;5012364;28;20032;-68
2022/12/04 04:56:15;;;;;;;22.90;14.75;;;;;;;6.08;100.00;101156.00;5001952;28;20030;-68
2022/12/04 04:58:41;;;;;;;23.48;15.13;;;;;;;6.08;100.00;101175.38;5012436;28;20108;-68
2022/12/04 05:01:13;;;;;;;23.50;15.75;;;;;;;6.26;100.00;101200.78;4993799;28;20145;-68
2022/12/04 05:03:39;;;;;;;25.98;15.75;;;;;;;6.10;100.00;101178.78;4993127;28;20485;-69
2022/12/04 05:06:05;;;;;;;24.05;14.98;;;;;;;6.47;100.00;101223.72;4993243;28;20406;-69
2022/12/04 05:08:31;;;;;;;25.27;16.08;;;;;;;6.40;100.00;101229.53;4992845;28;20027;-69
2022/12/04 05:10:57;;;;;;;25.02;16.08;;;;;;;6.05;100.00;101172.81;4992880;28;20030;-69
2022/12/04 05:13:22;;;;;;;23.75;15.75;;;;;;;6.29;100.00;101215.97;4991007;28;20046;-68
2022/12/04 05:15:59;;;;;;;24.60;16.23;;;;;;;6.20;100.00;101215.84;4993205;28;20034;-67
2022/12/04 05:18:25;;;;;;;22.38;14.93;;;;;;;6.24;100.00;101227.69;4993195;28;20339;-68
2022/12/04 05:20:50;;;;;;;23.50;15.80;;;;;;;6.06;100.00;101194.72;5009081;28;20087;-68
2022/12/04 05:23:16;;;;;;;23.27;15.77;;;;;;;6.09;100.00;101193.06;4999836;28;20038;-68
2022/12/04 05:25:41;;;;;;;21.42;14.70;;;;;;;6.23;100.00;101220.97;5010054;28;20099;-69
2022/12/04 05:28:06;;;;;;;23.05;15.38;;;;;;;6.32;100.00;101238.69;5005511;28;20111;-68
2022/12/04 05:30:32;;;;;;;23.50;15.57;;;;;;;6.25;100.00;101229.38;4999618;28;20030;-68
2022/12/04 05:32:57;;;;;;;23.52;15.55;;;;;;;5.92;100.00;101186.97;4992404;28;20026;-68
2022/12/04 05:35:23;;;;;;;28.30;16.17;;;;;;;6.21;100.00;101225.16;4992303;28;20412;-68
2022/12/04 05:37:48;;;;;;;21.35;14.63;;;;;;;6.90;100.00;101200.47;4992461;28;20485;-70
2022/12/04 05:40:14;;;;;;;24.67;16.17;;;;;;;6.06;100.00;101202.28;4991961;28;20485;-69
2022/12/04 05:42:39;;;;;;;21.60;15.43;;;;;;;6.35;100.00;101238.75;4991078;28;20132;-69
2022/12/04 05:45:05;;;;;;;24.15;15.52;;;;;;;5.99;100.00;101185.38;4992428;28;20037;-68
2022/12/04 05:47:31;;;;;;;20.25;14.63;;;;;;;6.37;100.00;101234.56;5002314;28;20044;-69
2022/12/04 05:49:56;;;;;;;21.05;14.80;;;;;;;6.01;100.00;101197.19;5010712;28;20041;-69
2022/12/04 05:52:22;;;;;;;23.75;14.35;;;;;;;5.96;100.00;101182.84;4996057;28;20061;-68
2022/12/04 05:54:47;;;;;;;24.85;14.15;;;;;;;5.96;100.00;101187.88;4990096;28;20114;-69
2022/12/04 05:57:13;;;;;;;24.45;14.98;;;;;;;6.42;100.00;101255.63;4991798;28;20031;-68
2022/12/04 05:59:38;;;;;;;21.00;14.40;;;;;;;5.92;100.00;101186.16;4990790;28;20030;-68
2022/12/04 06:02:03;;;;;;;23.48;14.73;;;;;;;6.16;100.00;101219.19;4999286;28;20037;-67
2022/12/04 06:04:29;;;;;;;18.73;13.00;;;;;;;6.17;100.00;101203.22;5010186;28;20100;-68
2022/12/04 06:06:54;;;;;;;18.85;12.70;;;;;;;6.18;100.00;101227.63;5011112;28;20475;-68
2022/12/04 06:09:20;;;;;;;18.75;12.65;;;;;;;6.24;100.00;101265.56;5011156;28;20034;-68
2022/12/04 06:11:45;;;;;;;20.08;11.98;;;;;;;5.62;100.00;101165.59;5010070;28;20026;-68
2022/12/04 06:14:14;;;;;;;19.60;12.68;;;;;;;6.32;100.00;101256.38;5009487;28;20026;-68
2022/12/04 06:16:42;;;;;;;22.15;13.60;;;;;;;6.35;100.00;101281.69;5010796;28;20032;-68
2022/12/04 06:19:11;;;;;;;18.00;13.30;;;;;;;6.03;100.00;101217.38;5010774;28;20034;-68
2022/12/04 06:21:38;;;;;;;17.70;12.25;;;;;;;6.31;100.00;101281.63;5010699;28;20025;-68
2022/12/04 06:24:05;;;;;;;19.75;12.55;;;;;;;6.09;100.00;101235.97;5010998;28;20037;-69
2022/12/04 06:26:30;;;;;;;17.30;12.18;;;;;;;6.15;100.00;101235.19;5010825;28;20033;-70
2022/12/04 06:28:57;;;;;;;17.48;11.88;;;;;;;6.45;100.00;101298.63;5011233;28;20033;-69
2022/12/04 06:31:25;;;;;;;18.02;13.82;;;;;;;6.36;100.00;101275.78;5010679;28;20473;-69
2022/12/04 06:33:52;;;;;;;17.63;13.73;;;;;;;6.39;100.00;101293.50;5011011;28;20056;-69
2022/12/04 06:36:20;;;;;;;18.45;13.40;;;;;;;6.32;100.00;101291.72;5008960;28;20571;-68
2022/12/04 06:38:46;;;;;;;20.13;13.60;;;;;;;6.33;100.00;101278.28;5006647;28;20057;-70
2022/12/04 06:41:14;;;;;;;22.63;15.10;;;;;;;6.45;100.00;101285.13;5000060;28;20117;-69
2022/12/04 06:43:40;;;;;;;19.15;13.43;;;;;;;6.34;100.00;101282.50;4990123;28;20034;-70
2022/12/04 06:46:17;;;;;;;22.08;15.10;;;;;;;6.54;100.00;101295.31;4991074;28;20496;-68
2022/12/04 06:48:44;;;;;;;19.10;13.98;;;;;;;6.35;100.00;101311.13;4991514;28;20124;-69
2022/12/04 06:51:15;;;;;;;22.88;12.63;;;;;;;5.89;100.00;101197.06;4991326;28;20031;-69
2022/12/04 06:53:41;;;;;;;17.75;13.00;;;;;;;6.11;100.00;101244.41;4992926;28;20129;-70
2022/12/04 06:56:10;;;;;;;17.38;12.73;;;;;;;6.28;100.00;101262.22;4991138;28;20172;-71
2022/12/04 06:58:36;;;;;;;16.85;11.50;;;;;;;6.14;100.00;101267.13;5006130;28;20034;-67
2022/12/04 07:01:10;;;;;;;15.88;11.65;;;;;;;6.13;100.00;101262.94;4989137;28;20035;-69
2022/12/04 07:03:37;;;;;;;15.77;11.73;;;;;;;6.22;100.00;101241.97;4990913;28;20030;-70
2022/12/04 07:06:15;;;;;;;17.27;11.05;;;;;;;6.48;100.00;101318.00;5007332;28;20092;-70
2022/12/04 07:08:43;;;;;;;19.67;11.25;;;;;;;6.34;100.00;101302.69;5010415;28;20041;-69
2022/12/04 07:11:09;;;;;;;23.50;14.98;;;;;;;6.17;100.00;101262.97;5010697;28;20038;-70
2022/12/04 07:13:34;;;;;;;72.15;47.22;;;;;;;6.56;100.00;101314.72;5006734;28;20040;-70
2022/12/04 07:16:01;;;;;;;37.05;28.73;;;;;;;6.29;100.00;101286.66;5000294;28;20135;-70
2022/12/04 07:18:29;;;;;;;41.30;31.38;;;;;;;6.13;100.00;101254.50;4999900;28;20091;-69
2022/12/04 07:20:54;;;;;;;23.50;16.75;;;;;;;6.12;100.00;101260.38;5011086;28;20041;-72
2022/12/04 07:23:19;;;;;;;22.80;16.63;;;;;;;5.92;100.00;101214.72;5014281;28;20034;-72
2022/12/04 07:25:45;;;;;;;31.70;21.88;;;;;;;6.58;100.00;101309.66;5012635;28;20033;-70
2022/12/04 07:28:10;;;;;;;23.90;17.40;;;;;;;6.20;100.00;101263.81;5011939;28;20053;-71
2022/12/04 07:30:37;;;;;;;21.85;15.40;;;;;;;6.58;100.00;101322.31;5015384;28;20034;-69
2022/12/04 07:33:03;;;;;;;23.95;16.67;;;;;;;6.38;100.00;101290.97;5009331;28;20049;-69
2022/12/04 07:35:29;;;;;;;17.70;13.27;;;;;;;6.38;100.00;101312.00;4996151;28;20027;-68
2022/12/04 07:37:54;;;;;;;23.15;13.77;;;;;;;7.24;100.00;101266.41;5015425;28;20120;-70
2022/12/04 07:40:19;;;;;;;19.08;13.52;;;;;;;6.41;100.00;101327.19;5016995;28;20165;-70
2022/12/04 07:42:45;;;;;;;18.27;13.35;;;;;;;6.28;100.00;101307.69;5016611;28;20029;-70
2022/12/04 07:45:10;;;;;;;19.40;13.98;;;;;;;6.61;100.00;101338.38;5016549;28;20048;-70
2022/12/04 07:47:36;;;;;;;23.77;15.65;;;;;;;6.56;100.00;101331.53;5016262;28;20041;-69
2022/12/04 07:50:05;;;;;;;24.08;18.13;;;;;;;6.27;100.00;101278.22;5016869;28;20021;-70
2022/12/04 07:52:35;;;;;;;28.27;20.92;;;;;;;6.58;100.00;101325.69;5016866;28;20040;-70
2022/12/04 07:55:00;;;;;;;25.63;18.13;;;;;;;6.31;100.00;101279.09;5016233;28;20041;-69
2022/12/04 07:57:27;;;;;;;30.63;20.73;;;;;;;6.58;100.00;101323.16;5016107;28;20030;-69
2022/12/04 07:59:52;;;;;;;19.58;13.75;;;;;;;6.38;100.00;101286.75;5016101;28;20022;-70
2022/12/04 08:02:19;;;;;;;23.40;18.77;;;;;;;6.37;100.00;101285.06;5015336;28;20179;-69
2022/12/04 08:04:45;;;;;;;21.52;15.48;;;;;;;6.34;100.00;101291.78;5015876;28;20515;-70
2022/12/04 08:07:10;;;;;;;20.73;15.15;;;;;;;6.64;100.00;101352.69;5016363;28;20037;-69
2022/12/04 08:09:36;;;;;;;21.08;15.35;;;;;;;6.21;100.00;101289.94;5016670;28;20044;-70
2022/12/04 08:12:02;;;;;;;19.15;13.48;;;;;;;6.28;100.00;101274.84;5017028;28;20476;-69
2022/12/04 08:14:27;;;;;;;19.90;14.05;;;;;;;6.56;100.00;101307.13;5015105;28;20524;-69
2022/12/04 08:16:52;;;;;;;18.88;12.75;;;;;;;6.78;100.00;101326.72;5016776;28;20033;-70
2022/12/04 08:19:18;;;;;;;17.85;11.52;;;;;;;6.51;100.00;101275.09;5016277;28;20037;-69
2022/12/04 08:21:43;;;;;;;14.82;11.38;;;;;;;6.38;100.00;101273.28;5016449;28;20111;-70
2022/12/04 08:24:09;;;;;;;15.68;11.25;;;;;;;6.49;100.00;101276.75;5016696;28;20030;-70
2022/12/04 08:26:34;;;;;;;15.35;10.82;;;;;;;6.95;100.00;101325.19;5016317;28;20045;-70
2022/12/04 08:29:00;;;;;;;17.10;11.30;;;;;;;7.14;100.00;101315.22;5016730;28;20038;-69
2022/12/04 08:31:28;;;;;;;16.75;11.65;;;;;;;7.01;100.00;101329.47;5016434;28;20044;-69
2022/12/04 08:33:56;;;;;;;15.93;10.70;;;;;;;6.89;100.00;101324.31;5015621;28;20052;-69
2022/12/04 08:36:22;;;;;;;14.18;10.40;;;;;;;6.68;100.00;101282.00;5011142;28;20062;-70
2022/12/04 08:38:48;;;;;;;13.95;9.65;;;;;;;7.03;100.00;101327.78;5013271;28;20061;-70
2022/12/04 08:41:16;;;;;;;18.88;13.45;;;;;;;7.01;100.00;101279.72;5013221;28;20398;-70
2022/12/04 08:43:42;;;;;;;16.98;12.65;;;;;;;7.29;100.00;101310.28;5013218;28;20053;-70
2022/12/04 08:46:10;;;;;;;15.85;10.98;;;;;;;7.07;100.00;101275.56;5011912;28;20476;-70
2022/12/04 08:48:36;;;;;;;11.55;8.73;;;;;;;6.81;100.00;101283.78;5013223;28;20026;-69
2022/12/04 08:51:03;;;;;;;13.15;8.50;;;;;;;6.80;100.00;101261.03;5013148;28;20045;-69
2022/12/04 08:53:29;;;;;;;12.77;9.40;;;;;;;7.27;100.00;101322.06;5012947;28;20582;-70
2022/12/04 08:55:55;;;;;;;13.43;11.45;;;;;;;7.10;100.00;101283.16;5012928;28;20481;-70
2022/12/04 08:58:21;;;;;;;12.63;9.70;;;;;;;7.01;100.00;101279.72;5012603;28;20037;-70
2022/12/04 09:00:47;;;;;;;11.70;8.82;;;;;;;7.21;100.00;101319.50;5013287;28;20112;-70
2022/12/04 09:03:15;;;;;;;11.60;8.38;;;;;;;7.21;100.00;101335.50;5013148;28;20126;-70
2022/12/04 09:05:41;;;;;;;9.73;6.95;;;;;;;6.98;100.00;101264.56;5012881;28;20496;-70
2022/12/04 09:08:07;;;;;;;9.77;7.78;;;;;;;6.85;100.00;101266.97;5013071;28;20076;-70
2022/12/04 09:10:34;;;;;;;8.30;6.90;;;;;;;6.85;100.00;101266.97;5012910;28;20030;-70
2022/12/04 09:13:00;;;;;;;8.95;6.63;;;;;;;6.59;100.00;101218.75;5012597;28;20030;-70
2022/12/04 09:15:25;;;;;;;9.57;7.10;;;;;;;7.03;100.00;101257.84;5010989;28;20048;-70
2022/12/04 09:17:51;;;;;;;10.07;7.88;;;;;;;7.29;100.00;101310.28;5012520;28;20034;-70
2022/12/04 09:20:16;;;;;;;13.00;9.57;;;;;;;7.37;100.00;101312.00;5010980;28;20041;-69
2022/12/04 09:22:42;;;;;;;10.00;7.20;;;;;;;7.38;100.00;101308.66;5012353;28;20033;-70
2022/12/04 09:25:07;;;;;;;8.52;6.85;;;;;;;7.07;100.00;101247.75;5012064;28;20040;-70
2022/12/04 09:27:36;;;;;;;9.27;7.00;;;;;;;7.38;100.00;101312.88;5012288;28;20088;-70
2022/12/04 09:30:06;;;;;;;9.88;7.40;;;;;;;7.10;100.00;101261.25;5012783;28;20447;-70
2022/12/04 09:32:31;;;;;;;7.90;6.50;;;;;;;7.01;100.00;101263.72;5011983;28;20074;-70
2022/12/04 09:34:57;;;;;;;10.00;6.60;;;;;;;7.25;100.00;101280.75;5010880;28;20113;-70
2022/12/04 09:37:22;;;;;;;8.57;5.82;;;;;;;7.41;100.00;101305.28;5012026;28;20180;-69
2022/12/04 09:39:48;;;;;;;7.53;5.75;;;;;;;6.75;100.00;101197.84;5011989;28;20053;-70
2022/12/04 09:42:16;;;;;;;8.48;6.25;;;;;;;7.39;100.00;101297.69;5011871;28;20034;-70
2022/12/04 09:44:41;;;;;;;8.27;6.07;;;;;;;7.25;100.00;101247.88;5011093;28;20026;-69
2022/12/04 09:47:35;;;;;;;8.68;6.68;;;;;;;7.51;100.00;101296.91;5010482;28;20072;-69
2022/12/04 09:50:21;;;;;;;6.70;5.43;;;;;;;6.95;100.00;101200.50;5006007;28;20036;-70
2022/12/04 09:52:50;;;;;;;8.43;6.43;;;;;;;7.68;100.00;101291.13;4992409;28;20034;-70
2022/12/04 09:55:27;;;;;;;8.73;6.22;;;;;;;8.08;100.00;101271.84;4991414;28;20039;-70
2022/12/04 09:57:55;;;;;;;8.05;6.35;;;;;;;7.77;100.00;101243.06;4992491;28;20041;-70
2022/12/04 10:00:21;;;;;;;9.38;7.78;;;;;;;8.24;100.00;101278.66;4990843;28;20373;-70
2022/12/04 10:02:56;;;;;;;11.32;9.48;;;;;;;8.02;100.00;101276.91;4659261;28;10000022;-70
2022/12/04 10:05:43;;;;;;;12.55;9.10;;;;;;;7.97;100.00;101270.13;5005703;28;20135;-70
2022/12/04 10:08:08;;;;;;;9.07;7.18;;;;;;;7.70;100.00;101227.84;5009255;28;20034;-70
2022/12/04 10:11:00;;;;;;;9.57;6.75;;;;;;;7.33;100.00;101171.19;5009359;28;20044;-70
2022/12/04 10:13:47;;;;;;;8.05;6.28;;;;;;;7.78;100.00;101271.75;5010043;28;20030;-70
2022/12/04 10:16:27;;;;;;;9.77;6.85;;;;;;;7.29;100.00;101215.00;5008265;28;20068;-70
2022/12/04 10:18:59;;;;;;;7.75;5.75;;;;;;;7.85;100.00;101260.81;5009202;28;20107;-70
2022/12/04 10:21:43;;;;;;;7.20;5.80;;;;;;;7.79;100.00;101265.84;5010013;28;20064;-70
2022/12/04 10:24:45;;;;;;;7.68;5.40;;;;;;;7.73;100.00;101266.66;5009400;28;20057;-70
2022/12/04 10:27:27;;;;;;;6.75;4.93;;;;;;;7.39;100.00;101263.97;5008118;28;20038;-70
2022/12/04 10:29:56;;;;;;;;;;;;;;;7.54;100.00;101266.56;5009628;28;20041;-70
2022/12/04 10:32:29;;;;;;;6.88;4.68;;;;;;;7.43;100.00;101263.13;5008214;28;20451;-70
2022/12/04 10:35:14;;;;;;;8.10;5.82;;;;;;;7.23;100.00;101198.97;5009696;28;20026;-71
2022/12/04 10:37:42;;;;;;;6.47;4.80;;;;;;;7.42;100.00;101238.69;5008393;28;20040;-70
2022/12/04 10:40:22;;;;;;;8.20;5.00;;;;;;;7.19;100.00;101210.72;4999247;28;20135;-70
2022/12/04 10:43:03;;;;;;;7.07;5.07;;;;;;;7.42;100.00;101238.69;5000873;28;20054;-72
2022/12/04 10:45:28;;;;;;;9.73;5.55;;;;;;;7.44;100.00;101222.69;5005311;28;20130;-68
2022/12/04 10:47:54;;;;;;;9.20;5.47;;;;;;;7.63;100.00;101237.09;5004442;28;20026;-70
2022/12/04 10:50:23;;;;;;;8.55;5.90;;;;;;;7.85;100.00;101205.13;4989023;28;20494;-68
2022/12/04 10:52:49;;;;;;;9.40;7.47;;;;;;;7.69;100.00;101223.63;4988586;28;20038;-70
2022/12/04 11:01:23;;;;;;;18.52;7.30;;;;;;;9.56;100.00;101214.34;5065460;27;20834;-73
2022/12/04 11:04:01;;;;;;;10.73;6.38;;;;;;;7.74;100.00;101103.81;5065781;28;20048;-65
2022/12/04 11:06:28;;;;;;;9.98;7.00;;;;;;;8.48;100.00;101217.91;5065361;28;20033;-65
2022/12/04 11:08:55;;;;;;;8.65;6.35;;;;;;;8.79;100.00;101205.25;5065393;28;20025;-67
2022/12/04 11:11:39;;;;;;;10.93;6.88;;;;;;;8.32;100.00;101180.75;5064794;28;20495;-67
2022/12/04 11:14:19;;;;;;;7.13;5.50;;;;;;;7.77;100.00;101143.50;5054745;28;20029;-63
2022/12/04 11:16:49;;;;;;;6.22;5.03;;;;;;;7.90;100.00;101140.16;5046659;28;20052;-67
2022/12/04 11:19:29;;;;;;;11.25;5.15;;;;;;;9.09;100.00;101210.28;5057481;28;20033;-67
2022/12/04 11:21:58;;;;;;;4.20;3.60;;;;;;;8.18;100.00;101196.75;5062383;28;20445;-67
2022/12/04 11:24:39;;;;;;;6.68;4.78;;;;;;;8.23;100.00;101195.06;5064490;28;20029;-68
2022/12/04 11:27:06;;;;;;;4.83;3.83;;;;;;;8.37;100.00;101198.47;5064218;28;20028;-67
2022/12/04 11:29:37;;;;;;;7.78;4.57;;;;;;;8.21;100.00;101181.56;5053005;28;20029;-68
2022/12/04 11:32:05;;;;;;;5.50;4.32;;;;;;;7.70;100.00;101098.78;5048606;28;20036;-68
2022/12/04 11:34:37;;;;;;;7.18;5.00;;;;;;;7.94;100.00;101115.69;5051123;28;20025;-67
2022/12/04 11:37:04;;;;;;;7.72;5.70;;;;;;;8.04;100.00;101123.31;5060419;28;20028;-68
2022/12/04 11:39:35;;;;;;;4.38;3.25;;;;;;;7.81;100.00;101124.94;5056605;28;20029;-67
2022/12/04 11:42:05;;;;;;;3.60;2.67;;;;;;;7.99;100.00;101184.88;5066083;28;20033;-68
2022/12/04 11:44:35;;;;;;;4.57;3.45;;;;;;;7.66;100.00;101124.94;5066244;28;20033;-67